Lakedale, North Carolina
Current Conditions -  °F | °C
As of 2:53 AM on Monday 22 Dec 2014 (Local Time) from KFAY Reporting Station
Light Rain Light Rain  
Wind Chill: 34°   Ceiling: 600
Heat Index: 41°   Visibility: 6mi
Dew Point: 39°   Wind: 13mph
Humidity: 93%   Direction: 30°NNE
Pressure: 30.12"   Gusts: NA
Location:  34.9828°N, 78.913°W
Report Text: KFAY 220753Z AUTO 03011KT 6SM -RA BR OVC006 05/04 A3012 RMK AO2 CIG 004V009 SLP196 P0005 T00500039
Loading
Personal Weather Stations






























Interactive Weather Map New forecast layout! Learn more

10-Day Weather Forecast

Advertisements
Track Severe Weather on mobile